Muscle Shoals, AL

5:06 PM CDT on October 22, 2014 (GMT -0500)
Jackson Heights | Change Station
CLOSE
Current Station
Personal Weather Station
Location: Muscle Shoals, AL
Elevation: 160 m
Nearby Weather Stations

Elev 160 m 34.75 °N, 87.64 °W | Updated 2 seconds ago

Clear
Clear
18.3 °C
Feels Like 18.3 °C
N
0.0
Wind Variable Wind from North
Gusts 10.8 km/h

Today
High -- | Low -- °C
--% Chance of Precip.
Yesterday
High -- | Low -- °C
Precip. -- mm
7:02 AM 6:07 PM
Waning Crescent, 1% visible
Pressure 1021 hPa
Visibility 14.5 kilometers
Clouds Clear
Dew Point 2 °C
Humidity 33%
Rainfall 0 mm
Snow Depth Not available.
UV 1 out of 12
Pollen 2.10 out of 12
Air Quality Not available.
Flu Activity Sporadic
METAR KMSL 222153Z AUTO 02008KT 9SM CLR 19/03 A3016 RMK AO2 SLP211 T01940033

More Conditions Fewer Conditions

Pressure 1021 hPa
Visibility 14.5 kilometers
Clouds Clear
Dew Point 2 °C
Humidity 33%
Rainfall 0 mm
Snow Depth Not available.
UV 1 out of 12
Pollen 2.10 out of 12
Air Quality Not available.
Flu Activity Sporadic
METAR KMSL 222153Z AUTO 02008KT 9SM CLR 19/03 A3016 RMK AO2 SLP211 T01940033

More Conditions Fewer Conditions

10-Day Weather Forecast

Almanac

Astronomy

Oct. 22, 2014 Rise Set
Actual Time 7:02 AM CDT 6:07 PM CDT
Civil Twilight 6:36 AM CDT 6:32 PM CDT
Nautical Twilight 6:07 AM CDT 7:02 PM CDT
Astronomical Twilight 5:37 AM CDT 7:31 PM CDT
Moon 5:46 AM CDT 5:31 PM CDT
Length of Visible Light 11h 56m
Length of Day
11h 05m
Tomorrow will be 2m 1s shorter.
Waning Crescent, 1% of the Moon is Illuminated
Today
Waning Crescent
Oct 23
New
Oct 30
First Quarter
Nov 6
Full
Nov 14
Last Quarter

Today's Extremes

State Highs State Lows

Community

WunderPhotos

Upload Photos

1,764,052 photos uploaded!

WunderBlogs® & News

Nearby

Snow Depth

Station Depth Elevation
No new snow has been reported.

Earthquake Activity

City Distance Mag. Time & Date
No recent earthquake activity has been reported nearby.
Minimum magnitude displayed is 2.5.

Coastal Water Temperatures

Place Temperature
No Stations Reporting

Nearby Weather Stations